Disclaimer

Please do not use the information listed here in-flight or in-navigation, as they are not provided to us by the airports but are provided by volunteers, so they might be outdated.

Search


Regions


Airport information page

Radio informations:
Tower (TWR) - 122.1 MHz
PTD - 120.7 MHz
CNSLD COMD POST - SEEREMAR MHz
PMSV METRO - 346.5 MHz
Ground (GND) - 132.45 MHz
DEP - 127.9 MHz
Clearance delivery - 127.3 MHz
Automatic Terminal Information Service (ATIS) - 132.125 MHz
Approach (APP) - 127.9 MHz

Airport informations:
Latitude: 37° 05' 26.22" N
Longitude: 127° 01' 46.54" E
Elevation: 40 feet - 12 meters
Operating hours: N/A
Operating agency: US Air Force
Timezone: UTC+9
Fuel: JP-8, SemiKeroscene MIL Spec T-83133, without icing inhibitor

Runway information:
09/27 - 9004 x 150 feet< - >2744 x 46 meters

Recent METARs:
RKSO 210132Z 01002KT 5SM -RA BR BKN019 OVC024 06/04 A3028 RMK WND DATA ESTMD ALSTG ESTMD
RKSO 210155Z 33003KT 4SM -RA BR BKN024 OVC028 07/04 A3030 RMK SLPNO WND DATA ESTMD ALSTG ESTMD
RKSO 210155Z 33003KT 4SM -RA BR BKN024 OVC028 07/04 A3030 RMK SLPNO WND DATA ESTMD ALSTG ESTMD

Airport on the map: